Time;durP1;ratioP1;P1;durP2;ratioP2;P2;SDS_P1;SDS_P2;PMS_P1;PMS_P2;Temp;Humidity;BMP_temperature;BMP_pressure;BME280_temperature;BME280_humidity;BME280_pressure;Samples;Min_cycle;Max_cycle;Signal;HPM_P1;HPM_P2
2022/01/31 00:00:28;;;;;;;;;;;;;;;;;;2117760;27;19983;-80
2022/01/31 00:01:30;;;;;;;;;;;;;;;;;;2118364;28;19928;-79
2022/01/31 00:02:32;;;;;;;;;;;;;;;;;;2117767;28;19928;-78
2022/01/31 00:03:34;;;;;;;;;;;;;;;;;;2119108;28;19935;-79
2022/01/31 00:04:36;;;;;;;;;;;;;;;;;;2118553;27;20001;-79
2022/01/31 00:05:38;;;;;;;;;;;;;;;;;;2118051;28;19935;-79
2022/01/31 00:06:42;;;;;;;;;;;;;;;;;;2118066;28;19925;-77
2022/01/31 00:07:46;;;;;;;;;;;;;;;;;;2118149;28;20066;-79
2022/01/31 00:08:50;;;;;;;;;;;;;;;;;;2118064;28;19928;-79
2022/01/31 00:09:52;;;;;;;;;;;;;;;;;;2118059;27;19924;-78
2022/01/31 00:10:55;;;;;;;;;;;;;;;;;;2118384;28;19927;-78
2022/01/31 00:12:02;;;;;;;;;;;;;;;;;;2118292;28;19928;-79
2022/01/31 00:13:11;;;;;;;;;;;;;;;;;;2118059;28;19935;-78
2022/01/31 00:14:30;;;;;;;;;;;;;;;;;;2118358;28;19936;-79
2022/01/31 00:15:36;;;;;;;;;;;;;;;;;;2118270;28;19924;-78
2022/01/31 00:16:38;;;;;;;;;;;;;;;;;;2117981;28;19935;-79
2022/01/31 00:17:42;;;;;;;;;;;;;;;;;;2118492;28;19928;-78
2022/01/31 00:18:44;;;;;;;;;;;;;;;;;;2117880;28;19928;-78
2022/01/31 00:19:46;;;;;;;;;;;;;;;;;;2117891;28;19925;-78
2022/01/31 00:20:48;;;;;;;;;;;;;;;;;;2118474;28;19928;-77
2022/01/31 00:21:49;;;;;;;;;;;;;;;;;;2118215;28;19931;-81
2022/01/31 00:22:51;;;;;;;;;;;;;;;;;;2117809;28;20022;-79
2022/01/31 00:23:54;;;;;;;;;;;;;;;;;;2117874;28;20710;-78
2022/01/31 00:24:56;;;;;;;;;;;;;;;;;;2117618;28;19928;-79
2022/01/31 00:25:57;;;;;;;;;;;;;;;;;;2117815;28;20066;-78
2022/01/31 00:27:00;;;;;;;;;;;;;;;;;;2117646;28;20634;-79
2022/01/31 00:28:01;;;;;;;;;;;;;;;;;;2117736;28;20073;-79
2022/01/31 00:29:03;;;;;;;;;;;;;;;;;;2118374;28;19975;-79
2022/01/31 00:30:05;;;;;;;;;;;;;;;;;;2118224;28;20704;-80
2022/01/31 00:31:07;;;;;;;;;;;;;;;;;;2117463;28;20674;-78
2022/01/31 00:32:09;;;;;;;;;;;;;;;;;;2117819;28;19931;-78
2022/01/31 00:33:10;;;;;;;;;;;;;;;;;;2117938;28;19924;-79
2022/01/31 00:34:12;;;;;;;;;;;;;;;;;;2118514;28;19928;-78
2022/01/31 00:35:14;;;;;;;;;;;;;;;;;;2117609;28;19928;-79
2022/01/31 00:36:15;;;;;;;;;;;;;;;;;;2117769;28;20623;-80
2022/01/31 00:37:18;;;;;;;;;;;;;;;;;;2117776;28;19928;-79
2022/01/31 00:38:20;;;;;;;;;;;;;;;;;;2117820;28;20750;-79
2022/01/31 00:39:22;;;;;;;;;;;;;;;;;;2118000;28;19924;-79
2022/01/31 00:40:24;;;;;;;;;;;;;;;;;;2118226;28;19928;-77
2022/01/31 00:41:26;;;;;;;;;;;;;;;;;;2119519;27;20054;-79
2022/01/31 00:42:29;;;;;;;;;;;;;;;;;;2117362;28;20050;-78
2022/01/31 00:43:35;;;;;;;;;;;;;;;;;;2117584;28;19973;-79
2022/01/31 00:44:46;;;;;;;;;;;;;;;;;;2117764;28;19932;-79
2022/01/31 00:46:12;;;;;;;;;;;;;;;;;;2117877;28;20110;-79
2022/01/31 00:47:24;;;;;;;;;;;;;;;;;;2117910;28;19924;-80
2022/01/31 00:48:27;;;;;;;;;;;;;;;;;;2117658;28;19924;-80
2022/01/31 00:50:39;;;;;;;;;;;;;;;;;;2118874;28;19963;-81
2022/01/31 00:51:40;;;;;;;;;;;;;;;;;;2119222;27;20783;-78
2022/01/31 00:52:43;;;;;;;;;;;;;;;;;;2117764;28;19935;-80
2022/01/31 00:53:45;;;;;;;;;;;;;;;;;;2117802;28;19996;-78
2022/01/31 00:54:47;;;;;;;;;;;;;;;;;;2117811;28;20724;-79
2022/01/31 00:55:49;;;;;;;;;;;;;;;;;;2117614;28;20753;-78
2022/01/31 00:56:51;;;;;;;;;;;;;;;;;;2117681;28;20054;-78
2022/01/31 00:57:52;;;;;;;;;;;;;;;;;;2117915;28;19964;-79
2022/01/31 00:58:54;;;;;;;;;;;;;;;;;;2117782;28;19943;-78
2022/01/31 00:59:56;;;;;;;;;;;;;;;;;;2117571;28;19924;-78
2022/01/31 01:00:57;;;;;;;;;;;;;;;;;;2117626;28;19931;-78
2022/01/31 01:01:59;;;;;;;;;;;;;;;;;;2118234;28;20140;-78
2022/01/31 01:03:03;;;;;;;;;;;;;;;;;;2116948;28;19993;-78
2022/01/31 01:04:05;;;;;;;;;;;;;;;;;;2117439;28;19938;-77
2022/01/31 01:05:06;;;;;;;;;;;;;;;;;;2117157;28;20737;-79
2022/01/31 01:06:08;;;;;;;;;;;;;;;;;;2118023;28;19924;-80
2022/01/31 01:07:10;;;;;;;;;;;;;;;;;;2117410;28;20808;-77
2022/01/31 01:08:12;;;;;;;;;;;;;;;;;;2117571;28;19963;-78
2022/01/31 01:09:14;;;;;;;;;;;;;;;;;;2117873;28;19939;-79
2022/01/31 01:10:16;;;;;;;;;;;;;;;;;;2118119;28;20021;-78
2022/01/31 01:11:18;;;;;;;;;;;;;;;;;;2117849;28;19967;-78
2022/01/31 01:12:20;;;;;;;;;;;;;;;;;;2117003;28;20002;-79
2022/01/31 01:13:22;;;;;;;;;;;;;;;;;;2117862;28;19998;-78
2022/01/31 01:14:24;;;;;;;;;;;;;;;;;;2117481;28;19931;-79
2022/01/31 01:15:27;;;;;;;;;;;;;;;;;;2117436;27;20042;-79
2022/01/31 01:16:29;;;;;;;;;;;;;;;;;;2117285;28;20816;-78
2022/01/31 01:17:30;;;;;;;;;;;;;;;;;;2117851;28;19928;-78
2022/01/31 01:18:33;;;;;;;;;;;;;;;;;;2117398;28;19999;-78
2022/01/31 01:19:35;;;;;;;;;;;;;;;;;;2117279;28;20009;-78
2022/01/31 01:20:37;;;;;;;;;;;;;;;;;;2117424;28;19931;-78
2022/01/31 01:21:41;;;;;;;;;;;;;;;;;;2117305;28;19950;-78
2022/01/31 01:22:44;;;;;;;;;;;;;;;;;;2117136;28;19928;-78
2022/01/31 01:23:45;;;;;;;;;;;;;;;;;;2117431;28;19928;-79
2022/01/31 01:24:48;;;;;;;;;;;;;;;;;;2117437;28;20003;-79
2022/01/31 01:25:51;;;;;;;;;;;;;;;;;;2117402;28;19998;-79
2022/01/31 01:26:54;;;;;;;;;;;;;;;;;;2117407;28;19928;-81
2022/01/31 01:27:56;;;;;;;;;;;;;;;;;;2117304;28;19928;-78
2022/01/31 01:28:58;;;;;;;;;;;;;;;;;;2117380;28;19924;-79
2022/01/31 01:29:59;;;;;;;;;;;;;;;;;;2117902;28;20752;-79
2022/01/31 01:31:01;;;;;;;;;;;;;;;;;;2117245;28;19954;-78
2022/01/31 01:32:03;;;;;;;;;;;;;;;;;;2117188;28;19935;-78
2022/01/31 01:33:10;;;;;;;;;;;;;;;;;;2117673;28;20051;-78
2022/01/31 01:34:12;;;;;;;;;;;;;;;;;;2116895;28;20192;-78
2022/01/31 01:35:13;;;;;;;;;;;;;;;;;;2117884;27;20048;-79
2022/01/31 01:36:15;;;;;;;;;;;;;;;;;;2117394;28;20735;-78
2022/01/31 01:37:18;;;;;;;;;;;;;;;;;;2117331;28;20000;-79
2022/01/31 01:38:23;;;;;;;;;;;;;;;;;;2117300;28;19931;-80
2022/01/31 01:39:26;;;;;;;;;;;;;;;;;;2117767;27;19936;-77
2022/01/31 01:40:28;;;;;;;;;;;;;;;;;;2117379;28;19928;-78
2022/01/31 01:41:29;;;;;;;;;;;;;;;;;;2117650;28;20051;-79
2022/01/31 01:42:33;;;;;;;;;;;;;;;;;;2117444;28;19935;-78
2022/01/31 01:43:38;;;;;;;;;;;;;;;;;;2117579;28;19924;-81
2022/01/31 01:44:40;;;;;;;;;;;;;;;;;;2117534;28;19932;-79
2022/01/31 01:45:42;;;;;;;;;;;;;;;;;;2117056;28;19935;-77
2022/01/31 01:46:44;;;;;;;;;;;;;;;;;;2117342;28;20046;-78
2022/01/31 01:47:45;;;;;;;;;;;;;;;;;;2117668;28;20047;-77
2022/01/31 01:48:47;;;;;;;;;;;;;;;;;;2117296;28;20808;-79
2022/01/31 01:49:49;;;;;;;;;;;;;;;;;;2117145;28;19928;-79
2022/01/31 01:50:50;;;;;;;;;;;;;;;;;;2117027;28;20005;-78
2022/01/31 01:51:52;;;;;;;;;;;;;;;;;;2117256;28;19928;-79
2022/01/31 01:52:54;;;;;;;;;;;;;;;;;;2117079;28;20635;-79
2022/01/31 01:53:55;;;;;;;;;;;;;;;;;;2117437;28;19924;-78
2022/01/31 01:55:01;;;;;;;;;;;;;;;;;;2117103;28;20615;-80
2022/01/31 01:56:03;;;;;;;;;;;;;;;;;;2117014;27;19928;-79
2022/01/31 01:57:05;;;;;;;;;;;;;;;;;;2116977;28;19935;-79
2022/01/31 01:58:14;;;;;;;;;;;;;;;;;;2117111;28;19932;-79
2022/01/31 01:59:15;;;;;;;;;;;;;;;;;;2117817;27;20065;-79
2022/01/31 02:00:24;;;;;;;;;;;;;;;;;;2117298;28;19928;-78
2022/01/31 02:01:25;;;;;;;;;;;;;;;;;;2117185;28;19928;-79
2022/01/31 02:02:28;;;;;;;;;;;;;;;;;;2116668;28;19931;-79
2022/01/31 02:03:29;;;;;;;;;;;;;;;;;;2117148;28;19928;-79
2022/01/31 02:04:31;;;;;;;;;;;;;;;;;;2117141;28;20709;-78
2022/01/31 02:05:33;;;;;;;;;;;;;;;;;;2116644;28;20741;-80
2022/01/31 02:06:35;;;;;;;;;;;;;;;;;;2117068;28;19967;-79
2022/01/31 02:07:37;;;;;;;;;;;;;;;;;;2117211;28;19928;-79
2022/01/31 02:08:41;;;;;;;;;;;;;;;;;;2116935;28;19924;-78
2022/01/31 02:09:45;;;;;;;;;;;;;;;;;;2117118;28;20630;-79
2022/01/31 02:10:47;;;;;;;;;;;;;;;;;;2117103;28;20620;-79
2022/01/31 02:11:49;;;;;;;;;;;;;;;;;;2117076;28;20655;-80
2022/01/31 02:12:51;;;;;;;;;;;;;;;;;;2117026;28;19969;-78
2022/01/31 02:13:53;;;;;;;;;;;;;;;;;;2116927;28;20604;-79
2022/01/31 02:14:57;;;;;;;;;;;;;;;;;;2117225;28;19986;-79
2022/01/31 02:15:59;;;;;;;;;;;;;;;;;;2117103;28;19935;-80
2022/01/31 02:17:01;;;;;;;;;;;;;;;;;;2117230;28;20643;-79
2022/01/31 02:18:03;;;;;;;;;;;;;;;;;;2117187;28;20053;-79
2022/01/31 02:19:06;;;;;;;;;;;;;;;;;;2116940;28;19928;-79
2022/01/31 02:20:08;;;;;;;;;;;;;;;;;;2116770;28;19928;-79
2022/01/31 02:21:12;;;;;;;;;;;;;;;;;;2117129;28;19944;-79
2022/01/31 02:22:14;;;;;;;;;;;;;;;;;;2117019;28;20692;-80
2022/01/31 02:23:17;;;;;;;;;;;;;;;;;;2117220;27;19995;-79
2022/01/31 02:24:20;;;;;;;;;;;;;;;;;;2117847;28;19931;-78
2022/01/31 02:25:22;;;;;;;;;;;;;;;;;;2118463;28;19924;-80
2022/01/31 02:26:24;;;;;;;;;;;;;;;;;;2118647;28;19928;-79
2022/01/31 02:27:26;;;;;;;;;;;;;;;;;;2118579;28;19924;-80
2022/01/31 02:28:28;;;;;;;;;;;;;;;;;;2118587;28;20705;-80
2022/01/31 02:29:30;;;;;;;;;;;;;;;;;;2118729;28;19934;-79
2022/01/31 02:30:33;;;;;;;;;;;;;;;;;;2118498;28;20780;-79
2022/01/31 02:31:35;;;;;;;;;;;;;;;;;;2118427;28;20001;-80
2022/01/31 02:32:36;;;;;;;;;;;;;;;;;;2118563;28;20720;-79
2022/01/31 02:33:39;;;;;;;;;;;;;;;;;;2118526;28;20075;-80
2022/01/31 02:34:40;;;;;;;;;;;;;;;;;;2118416;28;20031;-79
2022/01/31 02:35:42;;;;;;;;;;;;;;;;;;2118638;28;19924;-80
2022/01/31 02:36:44;;;;;;;;;;;;;;;;;;2118505;28;19924;-80
2022/01/31 02:37:46;;;;;;;;;;;;;;;;;;2118571;28;19999;-80
2022/01/31 02:38:48;;;;;;;;;;;;;;;;;;2118775;28;19935;-79
2022/01/31 02:39:51;;;;;;;;;;;;;;;;;;2118506;28;19924;-78
2022/01/31 02:40:54;;;;;;;;;;;;;;;;;;2118586;28;20038;-78
2022/01/31 02:41:57;;;;;;;;;;;;;;;;;;2118576;28;19928;-79
2022/01/31 02:43:00;;;;;;;;;;;;;;;;;;2118225;28;19928;-79
2022/01/31 02:44:02;;;;;;;;;;;;;;;;;;2118635;27;19974;-78
2022/01/31 02:45:05;;;;;;;;;;;;;;;;;;2118401;28;19924;-79
2022/01/31 02:46:07;;;;;;;;;;;;;;;;;;2118381;28;20025;-80
2022/01/31 02:47:15;;;;;;;;;;;;;;;;;;2119171;28;19925;-80
2022/01/31 02:48:21;;;;;;;;;;;;;;;;;;2118739;27;20757;-79
2022/01/31 02:49:28;;;;;;;;;;;;;;;;;;2118696;28;19967;-80
2022/01/31 02:50:30;;;;;;;;;;;;;;;;;;2118124;28;20701;-78
2022/01/31 02:51:33;;;;;;;;;;;;;;;;;;2118697;28;19924;-79
2022/01/31 02:52:36;;;;;;;;;;;;;;;;;;2118344;28;19924;-79
2022/01/31 02:53:42;;;;;;;;;;;;;;;;;;2118367;28;19931;-78
2022/01/31 02:54:45;;;;;;;;;;;;;;;;;;2118111;28;20597;-78
2022/01/31 02:55:47;;;;;;;;;;;;;;;;;;2118233;28;20638;-80
2022/01/31 02:56:49;;;;;;;;;;;;;;;;;;2118507;28;20720;-79
2022/01/31 02:57:51;;;;;;;;;;;;;;;;;;2118574;28;19978;-79
2022/01/31 02:58:53;;;;;;;;;;;;;;;;;;2118235;28;19928;-79
2022/01/31 02:59:55;;;;;;;;;;;;;;;;;;2118454;28;19928;-79
2022/01/31 03:00:57;;;;;;;;;;;;;;;;;;2118357;28;20048;-80
2022/01/31 03:01:59;;;;;;;;;;;;;;;;;;2118464;28;20050;-80
2022/01/31 03:03:01;;;;;;;;;;;;;;;;;;2118002;28;19994;-80
2022/01/31 03:04:04;;;;;;;;;;;;;;;;;;2118505;28;19924;-79
2022/01/31 03:05:06;;;;;;;;;;;;;;;;;;2118208;28;20025;-80
2022/01/31 03:06:09;;;;;;;;;;;;;;;;;;2118123;28;19932;-80
2022/01/31 03:07:11;;;;;;;;;;;;;;;;;;2118337;28;19930;-80
2022/01/31 03:08:13;;;;;;;;;;;;;;;;;;2118934;28;19928;-79
2022/01/31 03:09:15;;;;;;;;;;;;;;;;;;2118468;28;19928;-79
2022/01/31 03:10:18;;;;;;;;;;;;;;;;;;2118336;28;20662;-79
2022/01/31 03:11:19;;;;;;;;;;;;;;;;;;2117925;28;20710;-81
2022/01/31 03:12:22;;;;;;;;;;;;;;;;;;2118049;27;20034;-79
2022/01/31 03:13:24;;;;;;;;;;;;;;;;;;2118359;28;19924;-79
2022/01/31 03:14:27;;;;;;;;;;;;;;;;;;2118276;28;19931;-79
2022/01/31 03:15:30;;;;;;;;;;;;;;;;;;2118158;28;20750;-79
2022/01/31 03:16:34;;;;;;;;;;;;;;;;;;2118234;28;19928;-79
2022/01/31 03:17:40;;;;;;;;;;;;;;;;;;2118653;27;20009;-79
2022/01/31 03:18:43;;;;;;;;;;;;;;;;;;2118327;28;19935;-80
2022/01/31 03:19:52;;;;;;;;;;;;;;;;;;2118070;28;20054;-79
2022/01/31 03:20:54;;;;;;;;;;;;;;;;;;2117943;27;20713;-78
2022/01/31 03:21:58;;;;;;;;;;;;;;;;;;2118079;28;20751;-79
2022/01/31 03:23:01;;;;;;;;;;;;;;;;;;2117984;28;19929;-80
2022/01/31 03:24:05;;;;;;;;;;;;;;;;;;2118707;27;19924;-79
2022/01/31 03:25:08;;;;;;;;;;;;;;;;;;2118317;28;20002;-78
2022/01/31 03:26:12;;;;;;;;;;;;;;;;;;2118132;28;19931;-79
2022/01/31 03:27:14;;;;;;;;;;;;;;;;;;2118055;28;20145;-79
2022/01/31 03:28:31;;;;;;;;;;;;;;;;;;2118183;28;20622;-80
2022/01/31 03:29:41;;;;;;;;;;;;;;;;;;2118176;28;20846;-81
2022/01/31 03:30:53;;;;;;;;;;;;;;;;;;2118398;28;20646;-80
2022/01/31 03:31:55;;;;;;;;;;;;;;;;;;2118060;28;19937;-80
2022/01/31 03:33:07;;;;;;;;;;;;;;;;;;2118271;28;19994;-81
2022/01/31 03:34:14;;;;;;;;;;;;;;;;;;2118322;28;19935;-81
2022/01/31 03:35:34;;;;;;;;;;;;;;;;;;2117801;28;19934;-79
2022/01/31 03:36:37;;;;;;;;;;;;;;;;;;2118415;28;19924;-79
2022/01/31 03:37:41;;;;;;;;;;;;;;;;;;2118190;28;20050;-80
2022/01/31 03:38:48;;;;;;;;;;;;;;;;;;2118163;28;19931;-79
2022/01/31 03:39:52;;;;;;;;;;;;;;;;;;2118454;28;20013;-80
2022/01/31 03:40:57;;;;;;;;;;;;;;;;;;2118572;28;20698;-79
2022/01/31 03:41:58;;;;;;;;;;;;;;;;;;2118001;28;19928;-79
2022/01/31 03:43:05;;;;;;;;;;;;;;;;;;2117158;28;19924;-80
2022/01/31 03:44:12;;;;;;;;;;;;;;;;;;2117337;28;19924;-79
2022/01/31 03:45:18;;;;;;;;;;;;;;;;;;2117257;28;19970;-79
2022/01/31 03:46:23;;;;;;;;;;;;;;;;;;2117132;28;19928;-79
2022/01/31 03:47:27;;;;;;;;;;;;;;;;;;2117458;28;20786;-79
2022/01/31 03:48:31;;;;;;;;;;;;;;;;;;2117355;28;19931;-79
2022/01/31 03:49:35;;;;;;;;;;;;;;;;;;2117363;28;19934;-79
2022/01/31 03:50:40;;;;;;;;;;;;;;;;;;2117021;28;20058;-79
2022/01/31 03:51:42;;;;;;;;;;;;;;;;;;2117188;28;20006;-79
2022/01/31 03:52:45;;;;;;;;;;;;;;;;;;2117211;28;19935;-80
2022/01/31 03:53:47;;;;;;;;;;;;;;;;;;2117062;28;19931;-79
2022/01/31 03:54:50;;;;;;;;;;;;;;;;;;2117523;28;19924;-80
2022/01/31 03:55:54;;;;;;;;;;;;;;;;;;2118107;28;19997;-79
2022/01/31 03:56:56;;;;;;;;;;;;;;;;;;2118099;28;20041;-79
2022/01/31 03:57:58;;;;;;;;;;;;;;;;;;2117853;28;19928;-78
2022/01/31 03:59:01;;;;;;;;;;;;;;;;;;2118247;28;20045;-79
2022/01/31 04:00:05;;;;;;;;;;;;;;;;;;2118395;28;19994;-79
2022/01/31 04:01:07;;;;;;;;;;;;;;;;;;2118466;28;19934;-79
2022/01/31 04:02:08;;;;;;;;;;;;;;;;;;2118379;28;19924;-80
2022/01/31 04:03:11;;;;;;;;;;;;;;;;;;2116859;28;19932;-80
2022/01/31 04:04:15;;;;;;;;;;;;;;;;;;2117237;28;21177;-81
2022/01/31 04:05:22;;;;;;;;;;;;;;;;;;2117401;28;19933;-79
2022/01/31 04:06:31;;;;;;;;;;;;;;;;;;2117865;28;19931;-81
2022/01/31 04:07:36;;;;;;;;;;;;;;;;;;2117547;28;21116;-79
2022/01/31 04:08:44;;;;;;;;;;;;;;;;;;2117275;28;20038;-82
2022/01/31 04:09:54;;;;;;;;;;;;;;;;;;2117386;28;20690;-80
2022/01/31 04:11:15;;;;;;;;;;;;;;;;;;2117302;28;19980;-78
2022/01/31 04:12:36;;;;;;;;;;;;;;;;;;2116837;28;19997;-79
2022/01/31 04:14:00;;;;;;;;;;;;;;;;;;2116992;28;19928;-78
2022/01/31 04:15:21;;;;;;;;;;;;;;;;;;2117273;28;19932;-79
2022/01/31 04:16:42;;;;;;;;;;;;;;;;;;2117468;28;19925;-81
2022/01/31 04:18:04;;;;;;;;;;;;;;;;;;2116996;28;19928;-78
2022/01/31 04:19:26;;;;;;;;;;;;;;;;;;2117496;28;20016;-81
2022/01/31 04:20:49;;;;;;;;;;;;;;;;;;2117367;28;20062;-81
2022/01/31 04:22:15;;;;;;;;;;;;;;;;;;2116952;28;20077;-80
2022/01/31 04:23:36;;;;;;;;;;;;;;;;;;2117515;28;20874;-79
2022/01/31 04:25:02;;;;;;;;;;;;;;;;;;2117588;28;19924;-81
2022/01/31 04:26:23;;;;;;;;;;;;;;;;;;2117745;28;19928;-79
2022/01/31 04:27:50;;;;;;;;;;;;;;;;;;2118242;28;19951;-79
2022/01/31 04:29:17;;;;;;;;;;;;;;;;;;2118050;28;19974;-79
2022/01/31 04:30:45;;;;;;;;;;;;;;;;;;2119152;28;19928;-79
2022/01/31 04:32:06;;;;;;;;;;;;;;;;;;2118372;28;19928;-78
2022/01/31 04:33:28;;;;;;;;;;;;;;;;;;2118629;28;19974;-79
2022/01/31 04:34:49;;;;;;;;;;;;;;;;;;2119771;28;19924;-79
2022/01/31 04:36:14;;;;;;;;;;;;;;;;;;2119739;28;20006;-80
2022/01/31 04:37:35;;;;;;;;;;;;;;;;;;2118349;28;19924;-80
2022/01/31 04:38:57;;;;;;;;;;;;;;;;;;2118184;28;20719;-79
2022/01/31 04:40:18;;;;;;;;;;;;;;;;;;2118104;28;19924;-79
2022/01/31 04:41:40;;;;;;;;;;;;;;;;;;2117894;28;19928;-80
2022/01/31 04:43:01;;;;;;;;;;;;;;;;;;2117990;28;19935;-80
2022/01/31 04:44:23;;;;;;;;;;;;;;;;;;2118101;28;19924;-80
2022/01/31 04:45:48;;;;;;;;;;;;;;;;;;2117870;28;20789;-80
2022/01/31 04:47:10;;;;;;;;;;;;;;;;;;2117487;28;19928;-79
2022/01/31 04:48:36;;;;;;;;;;;;;;;;;;2117574;28;19924;-79
2022/01/31 04:49:57;;;;;;;;;;;;;;;;;;2117882;28;19985;-80
2022/01/31 04:51:19;;;;;;;;;;;;;;;;;;2118704;27;19958;-80
2022/01/31 04:52:42;;;;;;;;;;;;;;;;;;2117507;28;19928;-80
2022/01/31 04:54:06;;;;;;;;;;;;;;;;;;2117661;28;20670;-80
2022/01/31 04:55:29;;;;;;;;;;;;;;;;;;2117349;28;19924;-80
2022/01/31 04:56:50;;;;;;;;;;;;;;;;;;2117664;28;19924;-80
2022/01/31 04:58:12;;;;;;;;;;;;;;;;;;2117026;28;19928;-80
2022/01/31 04:59:33;;;;;;;;;;;;;;;;;;2117072;28;19989;-80
2022/01/31 05:00:55;;;;;;;;;;;;;;;;;;2116679;28;19931;-80
2022/01/31 05:02:16;;;;;;;;;;;;;;;;;;2117414;28;19924;-79
2022/01/31 05:03:38;;;;;;;;;;;;;;;;;;2117217;28;20050;-79
2022/01/31 05:05:00;;;;;;;;;;;;;;;;;;2117271;28;19928;-79
2022/01/31 05:06:27;;;;;;;;;;;;;;;;;;2117782;28;19931;-79
2022/01/31 05:07:51;;;;;;;;;;;;;;;;;;2117145;28;19928;-81
2022/01/31 05:09:14;;;;;;;;;;;;;;;;;;2117795;28;19925;-79
2022/01/31 05:10:38;;;;;;;;;;;;;;;;;;2117263;28;20113;-78
2022/01/31 05:11:59;;;;;;;;;;;;;;;;;;2117056;28;20002;-79
2022/01/31 05:13:20;;;;;;;;;;;;;;;;;;2118140;27;19928;-80
2022/01/31 05:14:43;;;;;;;;;;;;;;;;;;2126628;27;19924;-81
2022/01/31 05:16:04;;;;;;;;;;;;;;;;;;2125466;27;19936;-79
2022/01/31 05:17:25;;;;;;;;;;;;;;;;;;2125542;27;19923;-81
2022/01/31 05:18:48;;;;;;;;;;;;;;;;;;2116934;27;20054;-79
2022/01/31 05:20:09;;;;;;;;;;;;;;;;;;2117007;28;20119;-78
2022/01/31 05:21:31;;;;;;;;;;;;;;;;;;2117252;28;20718;-78
2022/01/31 05:22:52;;;;;;;;;;;;;;;;;;2117352;28;19935;-80
2022/01/31 05:24:14;;;;;;;;;;;;;;;;;;2117210;28;20062;-79
2022/01/31 05:25:35;;;;;;;;;;;;;;;;;;2116985;28;19928;-80
2022/01/31 05:26:57;;;;;;;;;;;;;;;;;;2117005;28;19928;-80
2022/01/31 05:28:20;;;;;;;;;;;;;;;;;;2117120;28;19935;-81
2022/01/31 05:29:43;;;;;;;;;;;;;;;;;;2117076;28;20707;-79
2022/01/31 05:31:04;;;;;;;;;;;;;;;;;;2117674;28;19928;-79
2022/01/31 05:32:26;;;;;;;;;;;;;;;;;;2118061;27;19928;-79
2022/01/31 05:33:47;;;;;;;;;;;;;;;;;;2117553;28;20006;-82
2022/01/31 05:35:08;;;;;;;;;;;;;;;;;;2117463;28;20001;-79
2022/01/31 05:36:29;;;;;;;;;;;;;;;;;;2117552;28;20094;-79
2022/01/31 05:37:51;;;;;;;;;;;;;;;;;;2117496;28;19962;-79
2022/01/31 05:39:12;;;;;;;;;;;;;;;;;;2116497;27;19928;-79
2022/01/31 05:40:34;;;;;;;;;;;;;;;;;;2123171;27;19955;-79
2022/01/31 05:41:55;;;;;;;;;;;;;;;;;;2122889;27;19924;-79
2022/01/31 05:43:19;;;;;;;;;;;;;;;;;;2140473;27;19931;-79
2022/01/31 05:44:42;;;;;;;;;;;;;;;;;;2128099;27;19927;-79
2022/01/31 05:46:04;;;;;;;;;;;;;;;;;;2126305;27;20074;-79
2022/01/31 05:47:25;;;;;;;;;;;;;;;;;;2126124;27;19924;-79
2022/01/31 05:48:51;;;;;;;;;;;;;;;;;;2125854;27;19928;-80
2022/01/31 05:50:13;;;;;;;;;;;;;;;;;;2123779;27;19959;-79
2022/01/31 05:51:37;;;;;;;;;;;;;;;;;;2126120;27;20812;-80
2022/01/31 05:52:59;;;;;;;;;;;;;;;;;;2141020;27;19923;-80
2022/01/31 05:54:21;;;;;;;;;;;;;;;;;;2128804;27;19950;-80
2022/01/31 05:55:43;;;;;;;;;;;;;;;;;;2123685;27;19924;-80
2022/01/31 05:57:07;;;;;;;;;;;;;;;;;;2126131;27;20735;-80
2022/01/31 05:58:23;;;;;;;;;;;;;;;;;;2138506;27;20044;-80
2022/01/31 05:59:46;;;;;;;;;;;;;;;;;;2133089;27;20719;-80
2022/01/31 06:01:09;;;;;;;;;;;;;;;;;;2126088;27;19923;-80
2022/01/31 06:02:32;;;;;;;;;;;;;;;;;;2126125;27;19924;-81
2022/01/31 06:04:16;;;;;;;;;;;;;;;;;;2126373;27;19924;-82
2022/01/31 06:05:36;;;;;;;;;;;;;;;;;;2127337;27;20021;-81
2022/01/31 06:07:05;;;;;;;;;;;;;;;;;;2127453;27;20051;-81
2022/01/31 06:08:33;;;;;;;;;;;;;;;;;;2126135;27;20618;-81
2022/01/31 06:10:08;;;;;;;;;;;;;;;;;;2117321;28;19935;-81
2022/01/31 06:11:33;;;;;;;;;;;;;;;;;;2117249;28;20047;-82
2022/01/31 06:12:59;;;;;;;;;;;;;;;;;;2118278;28;19928;-81
2022/01/31 06:14:22;;;;;;;;;;;;;;;;;;2117552;28;19931;-81
2022/01/31 06:15:44;;;;;;;;;;;;;;;;;;2121713;27;19935;-81
2022/01/31 06:17:16;;;;;;;;;;;;;;;;;;2124877;27;19924;-81
2022/01/31 06:18:40;;;;;;;;;;;;;;;;;;2126449;27;20739;-79
2022/01/31 06:19:58;;;;;;;;;;;;;;;;;;2122991;27;19935;-79
2022/01/31 06:21:19;;;;;;;;;;;;;;;;;;2125659;27;20710;-82
2022/01/31 06:22:42;;;;;;;;;;;;;;;;;;2127002;27;19965;-81
2022/01/31 06:24:01;;;;;;;;;;;;;;;;;;2110085;28;20043;-80
2022/01/31 06:25:18;;;;;;;;;;;;;;;;;;2120490;27;19928;-80
2022/01/31 06:26:41;;;;;;;;;;;;;;;;;;2126906;27;19930;-82
2022/01/31 06:28:05;;;;;;;;;;;;;;;;;;2127088;27;19932;-80
2022/01/31 06:29:27;;;;;;;;;;;;;;;;;;2122349;27;20715;-80
2022/01/31 06:30:57;;;;;;;;;;;;;;;;;;2116958;28;19928;-80
2022/01/31 06:32:25;;;;;;;;;;;;;;;;;;2118973;28;19946;-82
2022/01/31 06:33:47;;;;;;;;;;;;;;;;;;2118746;28;20736;-79
2022/01/31 06:35:18;;;;;;;;;;;;;;;;;;2119942;27;19965;-80
2022/01/31 06:36:41;;;;;;;;;;;;;;;;;;2117977;27;20757;-79
2022/01/31 06:38:02;;;;;;;;;;;;;;;;;;2122432;27;19935;-79
2022/01/31 06:39:26;;;;;;;;;;;;;;;;;;2121575;27;19927;-78
2022/01/31 06:40:49;;;;;;;;;;;;;;;;;;2122582;27;19924;-76
2022/01/31 06:42:10;;;;;;;;;;;;;;;;;;2121852;27;19928;-77
2022/01/31 06:43:32;;;;;;;;;;;;;;;;;;2123811;27;19935;-74
2022/01/31 06:44:53;;;;;;;;;;;;;;;;;;2124252;27;19927;-68
2022/01/31 06:46:15;;;;;;;;;;;;;;;;;;2122193;27;19928;-66
2022/01/31 06:47:36;;;;;;;;;;;;;;;;;;2124355;27;19928;-62
2022/01/31 06:48:58;;;;;;;;;;;;;;;;;;2125427;27;19924;-59
2022/01/31 06:50:19;;;;;;;;;;;;;;;;;;2122435;27;19928;-61
2022/01/31 06:51:40;;;;;;;;;;;;;;;;;;2123894;27;20719;-68
2022/01/31 06:53:02;;;;;;;;;;;;;;;;;;2122982;27;19928;-70
2022/01/31 06:54:24;;;;;;;;;;;;;;;;;;2122328;27;20005;-70
2022/01/31 06:55:45;;;;;;;;;;;;;;;;;;2123207;27;19928;-70
2022/01/31 06:57:07;;;;;;;;;;;;;;;;;;2124687;27;20666;-68
2022/01/31 06:58:28;;;;;;;;;;;;;;;;;;2122829;27;19928;-69
2022/01/31 06:59:49;;;;;;;;;;;;;;;;;;2123241;27;20749;-69
2022/01/31 07:01:11;;;;;;;;;;;;;;;;;;2124888;27;20021;-71
2022/01/31 07:02:32;;;;;;;;;;;;;;;;;;2125221;27;19935;-68
2022/01/31 07:03:54;;;;;;;;;;;;;;;;;;2123939;27;19923;-65
2022/01/31 07:05:16;;;;;;;;;;;;;;;;;;2120993;27;20729;-66
2022/01/31 07:06:37;;;;;;;;;;;;;;;;;;2124791;27;20632;-64
2022/01/31 07:07:59;;;;;;;;;;;;;;;;;;2122934;27;19927;-66
2022/01/31 07:09:22;;;;;;;;;;;;;;;;;;2120621;27;20731;-65
2022/01/31 07:10:51;;;;;;;;;;;;;;;;;;2122715;27;20886;-63
2022/01/31 07:12:14;;;;;;;;;;;;;;;;;;2125091;27;19935;-65
2022/01/31 07:13:38;;;;;;;;;;;;;;;;;;2126458;27;19928;-69
2022/01/31 07:14:59;;;;;;;;;;;;;;;;;;2125682;27;19935;-71
2022/01/31 07:16:20;;;;;;;;;;;;;;;;;;2126018;27;19924;-68
2022/01/31 07:17:44;;;;;;;;;;;;;;;;;;2125895;27;19939;-64
2022/01/31 07:19:08;;;;;;;;;;;;;;;;;;2125588;27;20618;-67
2022/01/31 07:20:39;;;;;;;;;;;;;;;;;;2125338;27;19928;-69
2022/01/31 07:22:00;;;;;;;;;;;;;;;;;;2125757;27;19928;-67
2022/01/31 07:23:26;;;;;;;;;;;;;;;;;;2125925;27;19923;-68
2022/01/31 07:25:00;;;;;;;;;;;;;;;;;;2124285;27;20819;-68
2022/01/31 07:26:21;;;;;;;;;;;;;;;;;;2126070;27;19928;-66
2022/01/31 07:27:42;;;;;;;;;;;;;;;;;;2125664;27;19978;-71
2022/01/31 07:29:04;;;;;;;;;;;;;;;;;;2125730;27;19936;-67
2022/01/31 07:30:25;;;;;;;;;;;;;;;;;;2121849;27;20631;-71
2022/01/31 07:31:47;;;;;;;;;;;;;;;;;;2122677;27;19928;-66
2022/01/31 07:33:08;;;;;;;;;;;;;;;;;;2125915;27;19935;-64
2022/01/31 07:34:26;;;;;;;;;;;;;;;;;;2125076;27;19931;-65
2022/01/31 07:35:48;;;;;;;;;;;;;;;;;;2124592;27;19927;-70
2022/01/31 07:37:09;;;;;;;;;;;;;;;;;;2125648;27;19935;-69
2022/01/31 07:38:30;;;;;;;;;;;;;;;;;;2124227;27;20531;-67
2022/01/31 07:39:37;;;;;;;;;;;;;;;;;;2124477;27;20001;-64
2022/01/31 07:40:59;;;;;;;;;;;;;;;;;;2124750;27;20735;-60
2022/01/31 07:42:20;;;;;;;;;;;;;;;;;;2123391;27;19924;-65
2022/01/31 07:43:44;;;;;;;;;;;;;;;;;;2124344;27;19927;-64
2022/01/31 07:45:05;;;;;;;;;;;;;;;;;;2125025;27;19958;-68
2022/01/31 07:46:26;;;;;;;;;;;;;;;;;;2124423;27;20004;-65
2022/01/31 07:47:48;;;;;;;;;;;;;;;;;;2124486;27;20026;-64
2022/01/31 07:49:09;;;;;;;;;;;;;;;;;;2125416;27;19928;-69
2022/01/31 07:50:32;;;;;;;;;;;;;;;;;;2125122;27;20004;-70
2022/01/31 07:51:56;;;;;;;;;;;;;;;;;;2124691;27;19928;-66
2022/01/31 07:53:17;;;;;;;;;;;;;;;;;;2124252;27;20873;-64
2022/01/31 07:54:38;;;;;;;;;;;;;;;;;;2122602;27;19931;-74
2022/01/31 07:56:01;;;;;;;;;;;;;;;;;;2123538;27;20004;-71
2022/01/31 07:57:24;;;;;;;;;;;;;;;;;;2125491;27;19931;-74
2022/01/31 07:58:46;;;;;;;;;;;;;;;;;;2122689;27;20652;-70
2022/01/31 08:00:07;;;;;;;;;;;;;;;;;;2124898;27;19961;-68
2022/01/31 08:01:28;;;;;;;;;;;;;;;;;;2124114;27;19927;-73
2022/01/31 08:02:52;;;;;;;;;;;;;;;;;;2124508;27;19935;-70
2022/01/31 08:04:13;;;;;;;;;;;;;;;;;;2122223;27;19928;-69
2022/01/31 08:05:34;;;;;;;;;;;;;;;;;;2122194;27;20710;-69
2022/01/31 08:06:56;;;;;;;;;;;;;;;;;;2122516;27;20004;-66
2022/01/31 08:08:17;;;;;;;;;;;;;;;;;;2125381;27;19927;-68
2022/01/31 08:09:39;;;;;;;;;;;;;;;;;;2124562;27;19936;-70